Virginia Dale, Colorado
Current Conditions -  °F | °C
As of 12:56 PM on Wednesday 28 Jan 2015 (Local Time) from KFEW Reporting Station
Broken Clouds Broken Clouds  
Wind Chill: 38°   Ceiling: 5500
Heat Index: 47°   Visibility: 10mi
Dew Point: 28°   Wind: 31mph
Humidity: 46%   Direction: 300°WNW
Pressure: 30.02"   Gusts: 44mph
Location:  40.8645°N, 105.398°W
Report Text: KFEW 281956Z AUTO 30027G38KT 10SM BKN055 BKN095 09/M02 A3002 RMK AO2 PK WND 30036/42 RAB17E24SHRAB24E36 SLP131 T00851025 $
Loading
Personal Weather Stations






























Interactive Weather Map New forecast layout! Learn more

10-Day Weather Forecast

Advertisements
Track Severe Weather on mobile